CheckWX is a tool to help pilots better visualize weather data.  It is not intended as a substitute for an official pre-flight weather briefing.

05:42:08 UTC

PAGA METAR
Edward G Pitka Sr Airport
Galena, Alaska, USA
Current

46 mins ago

PAGA 100456Z AUTO 34005KT 10SM FEW120 M05/M06 A2922 RMK AO2 SLP897 T10501061 FZRANO
Observed
Dec-10 @ 04:56 UTC
Wind
  • 340° at 5 KTS
Visibility
10 SM
Flight Rules
VFR
Cloud Levels
  • Few at 12,000' AGL
Temperature
-5°C / 23°F
Dewpoint
-6°C / 21°F
Humidity
93%
Altimeter
29.22" Hg
Pressure
989.52 hPa
Previous

2 hours ago

PAGA 100356Z AUTO 35005KT 10SM CLR M06/M07 A2919 RMK AO2 SLP889 T10561067 FZRANO
Observed
Dec-10 @ 03:56 UTC
Wind
  • 350° at 5 KTS
Visibility
10 SM
Flight Rules
VFR
Cloud Levels
  • Clear skies
Temperature
-6°C / 21°F
Dewpoint
-7°C / 19°F
Humidity
93%
Altimeter
29.19" Hg
Pressure
988.52 hPa
Previous

3 hours ago

PAGA 100256Z AUTO 35006KT 10SM CLR M06/M07 A2919 RMK AO2 SLP888 T10611072 56014 FZRANO
Observed
Dec-10 @ 02:56 UTC
Wind
  • 350° at 6 KTS
Visibility
10 SM
Flight Rules
VFR
Cloud Levels
  • Clear skies
Temperature
-6°C / 21°F
Dewpoint
-7°C / 19°F
Humidity
93%
Altimeter
29.19" Hg
Pressure
988.52 hPa